Time;durP1;ratioP1;P1;durP2;ratioP2;P2;SDS_P1;SDS_P2;PMS_P1;PMS_P2;Temp;Humidity;BMP_temperature;BMP_pressure;BME280_temperature;BME280_humidity;BME280_pressure;Samples;Min_cycle;Max_cycle;Signal;HPM_P1;HPM_P2
2021/07/05 00:00:35;;;;;;;1.45;1.17;;;15.50;99.90;;;;;;4936335;29;20318;-44
2021/07/05 00:03:04;;;;;;;0.82;0.60;;;15.40;99.90;;;;;;4936459;29;20315;-45
2021/07/05 00:05:33;;;;;;;1.90;1.38;;;15.40;99.90;;;;;;4936740;29;20255;-42
2021/07/05 00:08:01;;;;;;;1.42;1.02;;;15.40;99.90;;;;;;4936464;29;20252;-44
2021/07/05 00:10:29;;;;;;;2.00;1.45;;;15.40;99.90;;;;;;4936332;29;20298;-41
2021/07/05 00:12:58;;;;;;;1.40;0.98;;;15.40;99.90;;;;;;4936277;29;20627;-40
2021/07/05 00:15:30;;;;;;;3.80;1.90;;;15.30;99.90;;;;;;4936038;29;20570;-46
2021/07/05 00:18:00;;;;;;;2.45;1.30;;;15.40;99.90;;;;;;4936226;29;20683;-44
2021/07/05 00:20:30;;;;;;;1.73;1.30;;;15.40;99.90;;;;;;4936545;29;20396;-42
2021/07/05 00:22:59;;;;;;;2.45;1.48;;;15.40;99.90;;;;;;4935968;29;20308;-48
2021/07/05 00:25:28;;;;;;;1.52;1.00;;;15.40;99.90;;;;;;4936084;29;20249;-43
2021/07/05 00:27:56;;;;;;;1.38;1.08;;;15.40;99.90;;;;;;4935880;29;20664;-44
2021/07/05 00:30:24;;;;;;;2.75;1.10;;;15.40;99.90;;;;;;4935868;29;20222;-43
2021/07/05 00:32:53;;;;;;;3.03;1.40;;;15.30;99.90;;;;;;4935965;29;20319;-44
2021/07/05 00:35:24;;;;;;;2.83;0.90;;;15.30;99.90;;;;;;4935774;29;20211;-42
2021/07/05 00:37:54;;;;;;;1.08;0.93;;;15.30;99.90;;;;;;4935682;29;20275;-45
2021/07/05 00:40:24;;;;;;;1.20;1.10;;;15.20;99.90;;;;;;4935544;29;20231;-45
2021/07/05 00:42:55;;;;;;;1.23;1.13;;;15.30;99.90;;;;;;4935681;29;20216;-41
2021/07/05 00:45:24;;;;;;;1.38;1.23;;;15.30;99.90;;;;;;4935744;29;20247;-41
2021/07/05 00:47:53;;;;;;;1.33;1.05;;;15.20;99.90;;;;;;4935505;29;20330;-43
2021/07/05 00:50:24;;;;;;;1.25;1.15;;;15.30;99.90;;;;;;4935435;29;20707;-45
2021/07/05 00:52:55;;;;;;;1.25;1.15;;;15.30;99.90;;;;;;4935499;29;20570;-43
2021/07/05 00:55:25;;;;;;;1.20;1.10;;;15.30;99.90;;;;;;4935804;29;20218;-42
2021/07/05 00:57:54;;;;;;;2.35;1.23;;;15.30;99.90;;;;;;4935191;29;20775;-43
2021/07/05 01:00:24;;;;;;;1.08;0.98;;;15.30;99.90;;;;;;4935478;29;20307;-41
2021/07/05 01:02:53;;;;;;;1.30;1.20;;;15.30;99.90;;;;;;4935322;29;20299;-42
2021/07/05 01:05:22;;;;;;;1.35;1.25;;;15.30;99.90;;;;;;4935029;29;20307;-42
2021/07/05 01:07:51;;;;;;;1.38;1.27;;;15.20;99.90;;;;;;4935165;29;20212;-43
2021/07/05 01:10:20;;;;;;;1.35;1.15;;;15.20;99.90;;;;;;4935132;29;20667;-42
2021/07/05 01:12:50;;;;;;;4.15;1.33;;;15.20;99.90;;;;;;4934772;29;20608;-43
2021/07/05 01:15:21;;;;;;;1.42;1.33;;;15.20;99.90;;;;;;4935202;29;20668;-41
2021/07/05 01:17:50;;;;;;;2.35;1.13;;;15.20;99.90;;;;;;4935533;29;20315;-42
2021/07/05 01:20:20;;;;;;;1.88;1.40;;;15.20;99.90;;;;;;4935325;29;20295;-43
2021/07/05 01:22:50;;;;;;;2.40;1.17;;;15.20;99.90;;;;;;4935118;29;20236;-45
2021/07/05 01:25:21;;;;;;;2.17;1.30;;;15.20;99.90;;;;;;4935129;29;20310;-44
2021/07/05 01:27:51;;;;;;;1.45;1.15;;;15.20;99.90;;;;;;4934973;29;20635;-45
2021/07/05 01:30:21;;;;;;;1.33;1.23;;;15.20;99.90;;;;;;4934924;29;20643;-44
2021/07/05 01:32:51;;;;;;;1.95;1.27;;;15.20;99.90;;;;;;4934991;29;20282;-43
2021/07/05 01:35:18;;;;;;;2.80;1.35;;;15.20;99.90;;;;;;4934953;29;20216;-44
2021/07/05 01:37:48;;;;;;;1.50;1.40;;;15.30;99.90;;;;;;4934815;29;20212;-43
2021/07/05 01:40:18;;;;;;;4.40;1.40;;;15.20;99.90;;;;;;4934859;29;20303;-47
2021/07/05 01:42:51;;;;;;;2.15;1.65;;;15.30;99.90;;;;;;4934401;29;20263;-42
2021/07/05 01:45:20;;;;;;;1.88;1.25;;;15.30;99.90;;;;;;4934870;29;20216;-45
2021/07/05 01:47:48;;;;;;;3.72;1.20;;;15.30;99.90;;;;;;4934456;29;20253;-47
2021/07/05 01:50:16;;;;;;;4.03;1.23;;;15.30;99.90;;;;;;4934668;29;20323;-43
2021/07/05 01:52:46;;;;;;;1.77;1.13;;;15.30;99.90;;;;;;4934579;29;20208;-44
2021/07/05 01:55:16;;;;;;;2.42;1.45;;;15.30;99.90;;;;;;4934472;29;20227;-43
2021/07/05 01:57:44;;;;;;;1.65;1.15;;;15.30;99.90;;;;;;4934783;29;20306;-43
2021/07/05 02:00:15;;;;;;;2.17;1.45;;;15.40;99.90;;;;;;4934500;29;20253;-43
2021/07/05 02:02:45;;;;;;;1.98;1.60;;;15.30;99.90;;;;;;4934387;29;20319;-43
2021/07/05 02:05:16;;;;;;;2.10;1.50;;;15.30;99.90;;;;;;4934502;29;20219;-48
2021/07/05 02:07:45;;;;;;;2.58;1.40;;;15.20;99.90;;;;;;4934436;29;20314;-45
2021/07/05 02:10:17;;;;;;;1.42;1.10;;;15.20;99.90;;;;;;4934596;29;20306;-47
2021/07/05 02:12:45;;;;;;;1.60;1.35;;;15.10;99.90;;;;;;4934954;29;20303;-45
2021/07/05 02:15:14;;;;;;;1.77;1.30;;;15.10;99.90;;;;;;4934391;29;20698;-45
2021/07/05 02:17:44;;;;;;;4.72;1.42;;;15.10;99.90;;;;;;4934476;29;20213;-45
2021/07/05 02:20:14;;;;;;;2.78;1.60;;;15.10;99.90;;;;;;4934339;29;20790;-49
2021/07/05 02:22:43;;;;;;;1.42;1.33;;;15.00;99.90;;;;;;4934178;29;20279;-43
2021/07/05 02:25:14;;;;;;;2.90;1.73;;;15.00;99.90;;;;;;4938459;29;20550;-49
2021/07/05 02:27:45;;;;;;;1.50;1.40;;;15.00;99.90;;;;;;4938528;29;20208;-45
2021/07/05 02:30:15;;;;;;;2.33;1.83;;;15.00;99.90;;;;;;4938328;29;20287;-44
2021/07/05 02:32:45;;;;;;;1.88;1.73;;;14.90;99.90;;;;;;4938539;29;20212;-45
2021/07/05 02:35:16;;;;;;;1.35;1.25;;;14.90;99.90;;;;;;4938322;29;20618;-43
2021/07/05 02:37:47;;;;;;;3.95;1.60;;;14.90;99.90;;;;;;4938272;29;20211;-43
2021/07/05 02:40:17;;;;;;;2.75;1.75;;;14.90;99.90;;;;;;4938370;29;20279;-49
2021/07/05 02:42:47;;;;;;;2.20;1.80;;;14.90;99.90;;;;;;4938258;29;20237;-46
2021/07/05 02:45:18;;;;;;;3.03;1.90;;;14.80;99.90;;;;;;4937774;29;20306;-43
2021/07/05 02:47:46;;;;;;;3.08;1.90;;;14.90;99.90;;;;;;4937890;29;20326;-43
2021/07/05 02:50:14;;;;;;;3.05;1.77;;;14.80;99.90;;;;;;4938120;29;20208;-44
2021/07/05 02:52:42;;;;;;;2.30;1.58;;;14.90;99.90;;;;;;4937956;29;20204;-46
2021/07/05 02:55:12;;;;;;;2.47;1.98;;;14.90;99.90;;;;;;4937919;29;20212;-45
2021/07/05 02:57:43;;;;;;;4.35;1.95;;;14.70;99.90;;;;;;4938694;29;20303;-45
2021/07/05 03:00:16;;;;;;;3.25;1.70;;;14.70;99.90;;;;;;4940568;29;20291;-46
2021/07/05 03:02:45;;;;;;;3.15;2.05;;;14.70;99.90;;;;;;4938369;29;20318;-43
2021/07/05 03:05:17;;;;;;;5.38;1.83;;;14.70;99.90;;;;;;4939021;29;20239;-50
2021/07/05 03:07:46;;;;;;;2.15;1.77;;;14.60;99.90;;;;;;4937755;29;20222;-46
2021/07/05 03:10:17;;;;;;;2.95;1.92;;;14.60;99.90;;;;;;4938008;29;20552;-44
2021/07/05 03:12:45;;;;;;;2.67;1.70;;;14.50;99.90;;;;;;4937595;29;20303;-47
2021/07/05 03:15:17;;;;;;;2.47;1.30;;;14.50;99.90;;;;;;4937277;29;20594;-46
2021/07/05 03:17:46;;;;;;;2.17;1.88;;;14.50;99.90;;;;;;4937489;29;20212;-45
2021/07/05 03:20:16;;;;;;;4.20;2.00;;;14.50;99.90;;;;;;4937351;29;20333;-45
2021/07/05 03:22:46;;;;;;;2.47;2.00;;;14.50;99.90;;;;;;4937207;29;20255;-44
2021/07/05 03:25:16;;;;;;;4.40;2.45;;;14.50;99.90;;;;;;4937477;29;20243;-44
2021/07/05 03:27:45;;;;;;;4.50;2.13;;;14.50;99.90;;;;;;4937517;29;20216;-44
2021/07/05 03:30:16;;;;;;;2.40;1.90;;;14.50;99.90;;;;;;4937466;29;20218;-48
2021/07/05 03:32:45;;;;;;;4.72;2.83;;;14.50;99.90;;;;;;4937173;29;20204;-46
2021/07/05 03:35:15;;;;;;;2.63;2.33;;;14.50;99.90;;;;;;4936790;29;20262;-46
2021/07/05 03:37:43;;;;;;;2.38;2.10;;;14.50;99.90;;;;;;4937115;29;20216;-45
2021/07/05 03:40:14;;;;;;;5.47;2.33;;;14.50;99.90;;;;;;4937245;29;20563;-46
2021/07/05 03:42:43;;;;;;;2.97;2.20;;;14.50;99.90;;;;;;4937130;29;20283;-44
2021/07/05 03:45:14;;;;;;;3.63;2.38;;;14.50;99.90;;;;;;4936987;29;20212;-45
2021/07/05 03:47:44;;;;;;;2.80;2.50;;;14.50;99.90;;;;;;4936780;29;20244;-48
2021/07/05 03:50:14;;;;;;;5.38;2.47;;;14.60;99.90;;;;;;4936696;29;20222;-44
2021/07/05 03:52:42;;;;;;;4.18;2.03;;;14.60;99.90;;;;;;4936838;29;20287;-44
2021/07/05 03:55:13;;;;;;;4.45;2.28;;;14.60;99.90;;;;;;4936534;29;20676;-44
2021/07/05 03:57:42;;;;;;;3.40;2.50;;;14.70;99.90;;;;;;4936496;29;20758;-48
2021/07/05 04:00:13;;;;;;;2.22;2.10;;;14.70;99.90;;;;;;4936885;29;20255;-48
2021/07/05 04:02:41;;;;;;;3.08;2.42;;;14.70;99.90;;;;;;4936096;29;20749;-45
2021/07/05 04:05:11;;;;;;;3.05;2.50;;;14.70;99.90;;;;;;4936080;29;20208;-44
2021/07/05 04:07:40;;;;;;;4.25;2.35;;;14.80;99.90;;;;;;4936135;29;20215;-43
2021/07/05 04:10:10;;;;;;;3.15;2.42;;;14.80;99.90;;;;;;4936305;29;20216;-44
2021/07/05 04:12:38;;;;;;;3.30;2.30;;;14.80;99.90;;;;;;4936242;29;20340;-43
2021/07/05 04:15:08;;;;;;;2.33;2.13;;;14.90;99.90;;;;;;4936441;29;20223;-43
2021/07/05 04:17:37;;;;;;;2.92;2.65;;;15.00;99.90;;;;;;4936298;29;20238;-43
2021/07/05 04:20:09;;;;;;;4.82;3.15;;;15.10;99.90;;;;;;4936401;29;20543;-42
2021/07/05 04:22:38;;;;;;;6.80;3.40;;;15.20;99.90;;;;;;4936037;29;20715;-42
2021/07/05 04:25:09;;;;;;;9.48;2.65;;;15.30;99.90;;;;;;4936060;29;20212;-42
2021/07/05 04:27:37;;;;;;;6.45;4.10;;;15.40;99.90;;;;;;4936363;29;20606;-42
2021/07/05 04:30:07;;;;;;;7.53;2.40;;;15.50;99.90;;;;;;4936189;29;20216;-42
2021/07/05 04:32:37;;;;;;;9.80;7.38;;;15.70;99.90;;;;;;4936645;29;20247;-43
2021/07/05 04:35:08;;;;;;;4.40;2.78;;;15.80;99.90;;;;;;4936336;29;20211;-46
2021/07/05 04:37:38;;;;;;;3.72;2.17;;;16.00;99.90;;;;;;4936314;29;20504;-42
2021/07/05 04:40:09;;;;;;;4.13;2.20;;;16.20;99.90;;;;;;4936156;29;20303;-48
2021/07/05 04:42:38;;;;;;;5.63;2.72;;;16.30;99.90;;;;;;4936535;29;20580;-44
2021/07/05 04:45:08;;;;;;;2.65;2.40;;;16.50;99.90;;;;;;4936406;29;20750;-43
2021/07/05 04:47:37;;;;;;;6.00;2.65;;;16.70;99.90;;;;;;4935633;29;20244;-45
2021/07/05 04:50:15;;;;;;;4.05;2.30;;;16.80;99.90;;;;;;4936715;29;20208;-42
2021/07/05 04:52:45;;;;;;;7.43;2.17;;;17.00;99.90;;;;;;4936144;29;20271;-45
2021/07/05 04:55:16;;;;;;;4.30;2.30;;;17.20;99.90;;;;;;4935634;29;20679;-45
2021/07/05 04:57:45;;;;;;;3.65;2.10;;;17.20;99.90;;;;;;4935663;29;20303;-44
2021/07/05 05:00:17;;;;;;;7.15;2.20;;;17.30;99.90;;;;;;4935588;29;20212;-45
2021/07/05 05:02:57;;;;;;;4.10;1.95;;;17.30;99.90;;;;;;4935264;29;20240;-44
2021/07/05 05:05:25;;;;;;;5.25;2.83;;;17.30;99.90;;;;;;4935531;29;20645;-46
2021/07/05 05:07:54;;;;;;;3.70;2.15;;;17.30;99.90;;;;;;4935599;29;20648;-48
2021/07/05 05:10:24;;;;;;;3.35;1.77;;;17.20;99.90;;;;;;4935395;29;20636;-44
2021/07/05 05:12:53;;;;;;;2.42;1.80;;;17.30;99.90;;;;;;4935341;29;20216;-43
2021/07/05 05:15:22;;;;;;;3.28;1.92;;;17.30;99.90;;;;;;4935376;29;20220;-45
2021/07/05 05:17:50;;;;;;;4.75;2.45;;;17.30;99.90;;;;;;4935785;29;20250;-43
2021/07/05 05:20:20;;;;;;;2.60;2.35;;;17.30;99.90;;;;;;4935726;29;20295;-47
2021/07/05 05:22:49;;;;;;;3.15;1.80;;;17.30;99.90;;;;;;4935874;29;20248;-46
2021/07/05 05:25:19;;;;;;;4.45;2.00;;;17.30;99.90;;;;;;4935623;29;20216;-43
2021/07/05 05:27:48;;;;;;;2.33;2.13;;;17.30;99.90;;;;;;4935476;29;20346;-49
2021/07/05 05:30:18;;;;;;;4.57;2.45;;;17.30;99.90;;;;;;4935772;29;20212;-43
2021/07/05 05:32:48;;;;;;;3.80;1.95;;;17.20;99.90;;;;;;4935370;29;20218;-46
2021/07/05 05:35:18;;;;;;;3.88;2.08;;;17.20;99.90;;;;;;4935302;29;20243;-45
2021/07/05 05:37:47;;;;;;;5.43;2.33;;;17.20;99.90;;;;;;4935209;29;20213;-45
2021/07/05 05:40:15;;;;;;;8.75;4.07;;;17.30;99.90;;;;;;4935273;29;20303;-50
2021/07/05 05:42:45;;;;;;;19.85;4.80;;;17.50;99.90;;;;;;4935149;29;20282;-47
2021/07/05 05:45:14;;;;;;;2.67;2.10;;;17.70;99.90;;;;;;4935535;29;20232;-50
2021/07/05 05:47:42;;;;;;;2.97;1.75;;;17.90;99.90;;;;;;4935063;29;20240;-43
2021/07/05 05:50:11;;;;;;;2.95;1.63;;;18.10;99.90;;;;;;4935149;29;20248;-48
2021/07/05 05:52:39;;;;;;;2.35;1.90;;;18.30;99.90;;;;;;4934483;29;20302;-46
2021/07/05 05:55:09;;;;;;;2.03;1.90;;;18.50;99.90;;;;;;4934630;29;20664;-47
2021/07/05 05:57:38;;;;;;;3.10;1.70;;;18.60;99.90;;;;;;4934799;29;20212;-49
2021/07/05 06:00:14;;;;;;;1.52;1.42;;;18.70;99.90;;;;;;4934784;29;20307;-47
2021/07/05 06:02:42;;;;;;;3.58;1.73;;;18.80;99.90;;;;;;4935425;29;20311;-46
2021/07/05 06:05:11;;;;;;;2.13;1.50;;;18.90;99.90;;;;;;4935249;29;20349;-45
2021/07/05 06:07:40;;;;;;;2.13;1.30;;;18.90;99.90;;;;;;4934409;29;20208;-44
2021/07/05 06:10:08;;;;;;;1.90;1.38;;;19.00;99.90;;;;;;4934925;29;20647;-43
2021/07/05 06:12:41;;;;;;;2.28;1.20;;;19.00;99.90;;;;;;4935483;29;20211;-44
2021/07/05 06:15:12;;;;;;;3.03;1.38;;;19.00;99.90;;;;;;4936047;29;20278;-44
2021/07/05 06:17:40;;;;;;;3.35;1.30;;;19.10;99.90;;;;;;4935145;29;20316;-46
2021/07/05 06:20:10;;;;;;;3.72;1.50;;;19.20;99.90;;;;;;4935399;29;20239;-44
2021/07/05 06:22:55;;;;;;;1.23;1.10;;;19.30;99.90;;;;;;4934865;29;20286;-45
2021/07/05 06:25:24;;;;;;;1.30;1.08;;;19.50;99.90;;;;;;4935318;29;20240;-53
2021/07/05 06:27:53;;;;;;;1.75;1.48;;;19.50;99.90;;;;;;4935635;29;20214;-46
2021/07/05 06:30:22;;;;;;;1.30;1.08;;;19.50;99.90;;;;;;4935010;29;20310;-45
2021/07/05 06:32:51;;;;;;;2.00;1.30;;;19.50;99.90;;;;;;4936629;29;20299;-44
2021/07/05 06:35:20;;;;;;;1.40;1.30;;;19.50;99.90;;;;;;4935775;29;20290;-47
2021/07/05 06:37:49;;;;;;;1.25;1.15;;;19.60;99.90;;;;;;4936040;29;20218;-43
2021/07/05 06:40:18;;;;;;;1.38;1.20;;;19.80;99.90;;;;;;4934961;29;20299;-46
2021/07/05 06:42:46;;;;;;;2.88;1.20;;;19.90;99.90;;;;;;4934383;29;20706;-48
2021/07/05 06:45:14;;;;;;;1.75;1.13;;;20.00;99.90;;;;;;4934420;29;20322;-45
2021/07/05 06:47:43;;;;;;;1.30;1.17;;;20.20;99.90;;;;;;4934278;29;20275;-46
2021/07/05 06:50:12;;;;;;;1.33;1.10;;;20.40;99.90;;;;;;4934106;29;20212;-43
2021/07/05 06:52:40;;;;;;;1.42;1.10;;;20.50;99.90;;;;;;4934217;29;20606;-47
2021/07/05 06:55:09;;;;;;;1.05;1.05;;;20.70;99.90;;;;;;4934407;29;20279;-45
2021/07/05 06:57:37;;;;;;;0.82;0.82;;;20.80;99.90;;;;;;4934053;29;20283;-45
2021/07/05 07:00:08;;;;;;;5.22;3.95;;;20.90;99.90;;;;;;4934624;29;20222;-46
2021/07/05 07:02:37;;;;;;;1.92;1.35;;;21.00;99.90;;;;;;4934437;29;20645;-44
2021/07/05 07:05:10;;;;;;;1.40;1.13;;;21.00;99.90;;;;;;4933991;29;20327;-45
2021/07/05 07:07:38;;;;;;;1.00;0.90;;;21.00;99.90;;;;;;4934192;29;20743;-46
2021/07/05 07:10:08;;;;;;;1.30;1.10;;;21.00;99.90;;;;;;4936270;29;20220;-44
2021/07/05 07:12:37;;;;;;;1.08;0.98;;;21.10;99.90;;;;;;4937338;29;20247;-45
2021/07/05 07:15:06;;;;;;;1.02;1.00;;;21.10;99.90;;;;;;4937619;29;20208;-44
2021/07/05 07:17:37;;;;;;;1.38;1.20;;;21.10;99.90;;;;;;4937338;29;20315;-47
2021/07/05 07:20:10;;;;;;;1.55;1.42;;;21.20;99.90;;;;;;4937922;29;20278;-47
2021/07/05 07:22:39;;;;;;;1.17;1.05;;;21.20;99.90;;;;;;4945668;29;20212;-44
2021/07/05 07:25:11;;;;;;;2.92;1.30;;;21.30;99.90;;;;;;4939855;29;20232;-46
2021/07/05 07:27:39;;;;;;;1.20;1.10;;;21.30;99.90;;;;;;4937124;29;20690;-46
2021/07/05 07:30:10;;;;;;;4.00;1.20;;;21.30;99.90;;;;;;4937756;29;20635;-45
2021/07/05 07:32:43;;;;;;;1.60;1.50;;;21.30;99.90;;;;;;4936833;29;20295;-47
2021/07/05 07:35:15;;;;;;;2.45;1.05;;;21.40;99.90;;;;;;4937286;29;20219;-46
2021/07/05 07:37:45;;;;;;;1.05;0.93;;;21.40;99.90;;;;;;4936991;29;20709;-47
2021/07/05 07:40:19;;;;;;;3.53;1.30;;;21.40;99.90;;;;;;4936979;29;20216;-44
2021/07/05 07:42:48;;;;;;;1.58;1.00;;;21.30;99.90;;;;;;4939874;29;20233;-47
2021/07/05 07:45:18;;;;;;;2.72;1.98;;;21.40;99.90;;;;;;4936758;29;20228;-48
2021/07/05 07:47:47;;;;;;;1.38;1.05;;;21.40;99.90;;;;;;4936668;29;20240;-50
2021/07/05 07:50:19;;;;;;;1.20;1.10;;;21.30;99.90;;;;;;4936754;29;20298;-48
2021/07/05 07:52:47;;;;;;;2.75;1.30;;;21.40;99.90;;;;;;4937059;29;20363;-46
2021/07/05 07:55:16;;;;;;;4.70;1.80;;;21.40;99.90;;;;;;4937238;29;20244;-46
2021/07/05 07:57:45;;;;;;;3.17;1.50;;;21.40;99.90;;;;;;4936465;29;20240;-47
2021/07/05 08:00:15;;;;;;;0.80;0.80;;;21.50;99.90;;;;;;4937084;29;20248;-46
2021/07/05 08:02:44;;;;;;;2.05;1.08;;;21.50;99.90;;;;;;4936728;29;20312;-45
2021/07/05 08:05:16;;;;;;;1.05;0.88;;;21.60;99.90;;;;;;4936666;29;20251;-44
2021/07/05 08:07:44;;;;;;;1.83;1.48;;;21.60;99.90;;;;;;4936441;29;20212;-46
2021/07/05 08:10:14;;;;;;;1.80;1.05;;;21.70;99.90;;;;;;4936475;29;20216;-48
2021/07/05 08:12:43;;;;;;;2.30;1.15;;;21.80;99.90;;;;;;4936297;29;20263;-47
2021/07/05 08:15:14;;;;;;;5.78;1.30;;;22.00;99.90;;;;;;4936248;29;20219;-44
2021/07/05 08:17:47;;;;;;;0.95;0.90;;;22.20;99.90;;;;;;4936104;29;20222;-44
2021/07/05 08:20:21;;;;;;;1.95;1.02;;;22.40;99.90;;;;;;4935563;29;20219;-44
2021/07/05 08:22:50;;;;;;;2.58;1.17;;;22.50;99.90;;;;;;4935631;29;20250;-48
2021/07/05 08:25:19;;;;;;;0.80;0.80;;;22.60;99.90;;;;;;4936123;29;20359;-48
2021/07/05 08:27:47;;;;;;;3.28;2.75;;;22.60;99.90;;;;;;4936289;29;20310;-44
2021/07/05 08:30:19;;;;;;;1.20;1.00;;;22.80;99.90;;;;;;4936161;29;20244;-48
2021/07/05 08:32:47;;;;;;;1.63;0.90;;;22.90;99.90;;;;;;4936001;29;20687;-43
2021/07/05 08:35:18;;;;;;;1.58;1.17;;;22.90;99.90;;;;;;4935693;29;20212;-44
2021/07/05 08:37:46;;;;;;;0.93;0.85;;;22.90;99.80;;;;;;4936069;29;20239;-45
2021/07/05 08:40:15;;;;;;;1.25;1.15;;;22.90;99.90;;;;;;4936078;29;20302;-44
2021/07/05 08:42:44;;;;;;;1.42;1.08;;;22.90;99.70;;;;;;4937773;29;20212;-47
2021/07/05 08:45:14;;;;;;;1.63;1.50;;;23.00;99.60;;;;;;4935806;29;20256;-46
2021/07/05 08:47:44;;;;;;;2.15;1.33;;;23.00;99.30;;;;;;4935550;29;20780;-48
2021/07/05 08:50:14;;;;;;;0.80;0.80;;;23.00;99.20;;;;;;4935595;29;20651;-44
2021/07/05 08:52:45;;;;;;;2.75;1.20;;;23.00;99.10;;;;;;4935554;29;20212;-47
2021/07/05 08:55:16;;;;;;;2.28;1.00;;;22.90;99.10;;;;;;4935548;29;20222;-49
2021/07/05 08:57:44;;;;;;;2.95;1.67;;;23.00;99.20;;;;;;4935664;29;20211;-46
2021/07/05 09:00:14;;;;;;;2.60;1.60;;;23.00;99.00;;;;;;4935550;29;20303;-45
2021/07/05 09:02:42;;;;;;;1.08;0.93;;;23.00;98.90;;;;;;4935662;29;20259;-46
2021/07/05 09:05:11;;;;;;;7.63;2.03;;;23.10;98.80;;;;;;4935502;29;20287;-45
2021/07/05 09:07:58;;;;;;;4.40;1.40;;;23.10;98.70;;;;;;4935593;29;20650;-44
2021/07/05 09:10:27;;;;;;;2.28;1.27;;;23.10;99.00;;;;;;4935292;29;20216;-43
2021/07/05 09:13:16;;;;;;;6.38;1.30;;;23.20;98.90;;;;;;4934868;29;20251;-48
2021/07/05 09:15:47;;;;;;;1.98;1.23;;;23.30;98.50;;;;;;4935077;29;20216;-44
2021/07/05 09:18:43;;;;;;;2.80;2.05;;;23.40;98.60;;;;;;4935297;29;20294;-46
2021/07/05 09:21:18;;;;;;;1.60;1.20;;;23.50;98.00;;;;;;4922465;29;20691;-48
2021/07/05 09:23:53;;;;;;;2.40;0.95;;;23.50;98.30;;;;;;4935301;29;20215;-47
2021/07/05 09:26:24;;;;;;;2.05;1.00;;;23.70;98.30;;;;;;4935047;29;20239;-45
2021/07/05 09:28:55;;;;;;;1.60;1.02;;;23.70;98.20;;;;;;4935427;29;20220;-47
2021/07/05 09:31:46;;;;;;;0.98;0.90;;;23.50;98.30;;;;;;4934871;29;20631;-48
2021/07/05 09:34:18;;;;;;;1.45;1.17;;;23.40;98.40;;;;;;4931512;29;20597;-46
2021/07/05 09:36:46;;;;;;;1.60;1.50;;;23.30;98.70;;;;;;4935145;29;20483;-45
2021/07/05 09:39:18;;;;;;;4.05;2.55;;;23.20;98.80;;;;;;4934847;29;20298;-45
2021/07/05 09:41:47;;;;;;;2.53;2.33;;;23.30;98.80;;;;;;4934458;29;20583;-43
2021/07/05 09:44:17;;;;;;;1.10;1.00;;;23.30;98.70;;;;;;4934774;29;20260;-43
2021/07/05 09:46:49;;;;;;;0.95;0.80;;;23.30;98.80;;;;;;4934611;29;20228;-45
2021/07/05 09:49:24;;;;;;;0.98;0.88;;;23.20;99.00;;;;;;4934726;29;20315;-46
2021/07/05 09:52:19;;;;;;;1.27;1.17;;;23.20;99.30;;;;;;4934762;29;20338;-47
2021/07/05 09:54:50;;;;;;;3.00;1.60;;;23.20;99.80;;;;;;4935306;29;20278;-46
2021/07/05 09:57:26;;;;;;;3.50;1.67;;;23.20;99.70;;;;;;4936790;29;20222;-44
2021/07/05 09:59:58;;;;;;;10.73;5.47;;;23.30;99.70;;;;;;4934766;29;20242;-48
2021/07/05 10:02:27;;;;;;;1.15;1.02;;;23.40;99.60;;;;;;4934688;29;20212;-43
2021/07/05 10:05:10;;;;;;;1.10;1.00;;;23.50;99.60;;;;;;4934562;29;20233;-46
2021/07/05 10:07:38;;;;;;;5.35;2.70;;;23.60;99.20;;;;;;4934529;29;20318;-44
2021/07/05 10:10:18;;;;;;;4.43;2.75;;;23.60;99.20;;;;;;4934765;29;20298;-48
2021/07/05 10:12:54;;;;;;;2.40;1.20;;;23.60;99.20;;;;;;4934973;29;20254;-47
2021/07/05 10:15:23;;;;;;;1.33;0.80;;;23.60;99.00;;;;;;4934446;29;20286;-48
2021/07/05 10:17:52;;;;;;;1.05;0.82;;;23.60;98.80;;;;;;4934844;29;20251;-47
2021/07/05 10:20:25;;;;;;;1.38;0.80;;;23.70;98.30;;;;;;4934616;29;20220;-45
2021/07/05 10:22:56;;;;;;;1.48;1.15;;;23.70;98.20;;;;;;4934529;29;20232;-49
2021/07/05 10:25:27;;;;;;;2.70;0.75;;;23.80;98.10;;;;;;4935032;29;20212;-44
2021/07/05 10:27:56;;;;;;;2.17;1.00;;;23.90;97.80;;;;;;4934473;29;20263;-43
2021/07/05 10:30:25;;;;;;;1.20;0.85;;;24.10;97.50;;;;;;4934518;29;20222;-47
2021/07/05 10:32:54;;;;;;;1.23;0.93;;;24.20;97.30;;;;;;4934290;29;20385;-46
2021/07/05 10:35:32;;;;;;;1.60;0.90;;;24.20;97.00;;;;;;4934384;29;20735;-45
2021/07/05 10:38:05;;;;;;;1.58;1.00;;;24.00;96.90;;;;;;4934382;29;20212;-45
2021/07/05 10:40:38;;;;;;;1.02;0.57;;;23.90;97.10;;;;;;4934191;29;20242;-48
2021/07/05 10:43:07;;;;;;;2.80;0.77;;;23.90;96.90;;;;;;4935169;29;20296;-45
2021/07/05 10:45:41;;;;;;;0.80;0.60;;;23.80;97.10;;;;;;4937231;29;20310;-48
2021/07/05 10:48:11;;;;;;;1.40;0.98;;;23.60;97.30;;;;;;4937988;29;20765;-45
2021/07/05 10:50:55;;;;;;;2.00;0.65;;;23.40;97.70;;;;;;4938223;29;20212;-46
2021/07/05 10:53:55;;;;;;;1.17;1.00;;;23.30;97.90;;;;;;4937480;29;20326;-43
2021/07/05 10:56:31;;;;;;;2.10;0.77;;;23.10;98.80;;;;;;4878962;29;20690;-44
2021/07/05 10:59:47;;;;;;;1.27;0.88;;;23.20;98.80;;;;;;4928070;29;20593;-45
2021/07/05 11:02:42;;;;;;;1.15;0.85;;;23.20;98.60;;;;;;4937818;29;20212;-44
2021/07/05 11:05:35;;;;;;;2.35;1.17;;;23.10;98.70;;;;;;4937732;29;20212;-47
2021/07/05 11:08:21;;;;;;;1.30;0.80;;;22.90;98.90;;;;;;4937553;29;20275;-46
2021/07/05 11:10:54;;;;;;;1.98;1.55;;;22.70;99.40;;;;;;4937588;29;20307;-45
2021/07/05 11:13:31;;;;;;;1.02;0.80;;;22.60;99.80;;;;;;4937567;29;20223;-46
2021/07/05 11:16:00;;;;;;;1.23;0.88;;;22.50;99.90;;;;;;4937491;29;20529;-43
2021/07/05 11:19:01;;;;;;;1.10;1.00;;;22.40;99.90;;;;;;4937329;29;20212;-44
2021/07/05 11:21:58;;;;;;;0.85;0.85;;;22.50;99.90;;;;;;4878824;29;20217;-46
2021/07/05 11:24:43;;;;;;;1.65;1.30;;;22.60;99.90;;;;;;4878544;29;20217;-45
2021/07/05 11:27:47;;;;;;;1.10;0.85;;;22.60;99.90;;;;;;4923570;29;20237;-46
2021/07/05 11:30:35;;;;;;;1.40;1.30;;;22.70;99.90;;;;;;4937081;29;20676;-43
2021/07/05 11:33:25;;;;;;;5.43;2.90;;;22.80;99.90;;;;;;4937140;29;20592;-45
2021/07/05 11:35:58;;;;;;;3.45;2.55;;;22.90;99.90;;;;;;4937150;29;20280;-44
2021/07/05 11:38:45;;;;;;;1.70;1.40;;;23.10;99.90;;;;;;4937126;29;20212;-44
2021/07/05 11:41:28;;;;;;;2.05;1.08;;;23.30;99.80;;;;;;4937078;29;20731;-46
2021/07/05 11:43:59;;;;;;;1.42;1.33;;;23.50;99.40;;;;;;4937259;29;20595;-45
2021/07/05 11:46:56;;;;;;;1.10;1.00;;;23.70;99.10;;;;;;4936933;29;20686;-45
2021/07/05 11:49:26;;;;;;;1.13;0.95;;;24.10;98.30;;;;;;4936854;29;20259;-45
2021/07/05 11:51:57;;;;;;;2.70;1.27;;;24.40;97.80;;;;;;4937152;29;20208;-51
2021/07/05 11:54:31;;;;;;;6.15;1.27;;;24.60;97.30;;;;;;4936961;29;20223;-44
2021/07/05 11:57:02;;;;;;;1.05;0.70;;;24.80;96.80;;;;;;4936525;29;20208;-44
2021/07/05 11:59:31;;;;;;;7.00;1.70;;;25.00;96.40;;;;;;4936537;29;20247;-46
2021/07/05 12:02:03;;;;;;;1.50;0.93;;;25.00;96.30;;;;;;4936690;29;20227;-45
2021/07/05 12:04:33;;;;;;;1.65;0.90;;;25.10;95.60;;;;;;4936707;29;20307;-46
2021/07/05 12:07:04;;;;;;;0.60;0.60;;;25.10;94.80;;;;;;4936713;29;20250;-44
2021/07/05 12:09:33;;;;;;;0.70;0.65;;;25.00;94.40;;;;;;4936647;29;20309;-44
2021/07/05 12:12:09;;;;;;;21.00;3.03;;;24.80;94.30;;;;;;4936389;29;20281;-46
2021/07/05 12:14:37;;;;;;;4.90;1.15;;;24.70;94.30;;;;;;4936535;29;20302;-49
2021/07/05 12:17:08;;;;;;;1.50;0.80;;;24.50;94.40;;;;;;4936519;29;20318;-47
2021/07/05 12:19:40;;;;;;;1.70;0.80;;;24.20;94.20;;;;;;4936390;29;20278;-44
2021/07/05 12:22:10;;;;;;;2.95;1.10;;;23.70;94.40;;;;;;4936494;29;20291;-45
2021/07/05 12:24:39;;;;;;;3.80;1.17;;;23.30;95.10;;;;;;4936380;29;20251;-44
2021/07/05 12:27:09;;;;;;;1.77;0.68;;;23.00;95.40;;;;;;4937014;29;20711;-47
2021/07/05 12:29:45;;;;;;;1.63;0.80;;;22.90;95.50;;;;;;4936554;29;20271;-43
2021/07/05 12:32:16;;;;;;;0.75;0.70;;;22.80;95.50;;;;;;4936248;29;20571;-47
2021/07/05 12:34:53;;;;;;;0.82;0.70;;;22.60;95.70;;;;;;4936235;29;20294;-47
2021/07/05 12:37:28;;;;;;;1.60;0.80;;;22.50;95.90;;;;;;4936204;29;20220;-46
2021/07/05 12:39:59;;;;;;;1.70;0.57;;;22.60;95.90;;;;;;4936012;29;20214;-47
2021/07/05 12:42:31;;;;;;;1.98;0.70;;;22.70;95.70;;;;;;4935976;29;20215;-46
2021/07/05 12:45:00;;;;;;;2.65;1.00;;;22.80;95.70;;;;;;4935936;29;20441;-44
2021/07/05 12:47:30;;;;;;;1.15;0.63;;;22.80;95.60;;;;;;4935518;29;20704;-43
2021/07/05 12:49:59;;;;;;;0.85;0.80;;;23.00;95.50;;;;;;4935844;29;20302;-47
2021/07/05 12:52:27;;;;;;;1.77;1.00;;;23.10;95.70;;;;;;4935916;29;20691;-47
2021/07/05 12:55:14;;;;;;;1.05;0.95;;;23.20;95.20;;;;;;4935684;29;20240;-44
2021/07/05 12:57:50;;;;;;;1.25;1.10;;;23.40;94.90;;;;;;4935083;29;20208;-43
2021/07/05 13:00:19;;;;;;;1.67;0.95;;;23.70;94.60;;;;;;4935485;29;20305;-46
2021/07/05 13:02:49;;;;;;;5.97;1.52;;;24.10;94.10;;;;;;4935528;29;20307;-48
2021/07/05 13:05:20;;;;;;;2.70;0.80;;;24.20;93.60;;;;;;4935665;29;20647;-46
2021/07/05 13:07:56;;;;;;;4.35;0.93;;;24.20;93.20;;;;;;4934718;29;20637;-47